createdAt,value
2018-02-21T00:31:53.937Z,4.90
2018-02-21T00:32:56.454Z,4.90
2018-02-21T00:34:41.086Z,4.90
2018-02-21T00:35:43.233Z,4.90
2018-02-21T00:36:44.661Z,4.90
2018-02-21T00:37:47.288Z,4.90
2018-02-21T00:38:50.339Z,4.90
2018-02-21T00:39:54.975Z,4.90
2018-02-21T00:40:56.917Z,5.00
2018-02-21T00:41:58.993Z,5.00
2018-02-21T00:43:23.857Z,5.00
2018-02-21T00:44:26.529Z,5.00
2018-02-21T00:45:28.540Z,5.10
2018-02-21T00:46:30.107Z,5.00
2018-02-21T00:47:31.494Z,5.00
2018-02-21T00:48:32.896Z,5.10
2018-02-21T00:49:34.290Z,5.10
2018-02-21T00:50:35.675Z,5.10
2018-02-21T00:51:37.079Z,5.10
2018-02-21T00:52:38.510Z,5.10
2018-02-21T00:53:41.043Z,5.10
2018-02-21T00:54:42.453Z,5.10
2018-02-21T00:55:43.851Z,5.10
2018-02-21T00:56:46.746Z,5.10
2018-02-21T00:57:48.322Z,5.10
2018-02-21T00:59:56.959Z,5.20
2018-02-21T01:00:58.681Z,5.20
2018-02-21T01:02:01.229Z,5.10
2018-02-21T01:03:02.637Z,5.20
2018-02-21T01:05:09.613Z,5.20
2018-02-21T01:06:11.021Z,5.20
2018-02-21T01:07:12.413Z,5.20
2018-02-21T01:08:13.815Z,5.20
2018-02-21T01:10:19.613Z,5.20
2018-02-21T01:11:24.364Z,5.30
2018-02-21T01:12:26.645Z,5.30
2018-02-21T01:13:28.623Z,5.20
2018-02-21T01:14:30.162Z,5.30
2018-02-21T01:15:31.611Z,5.30
2018-02-21T01:16:32.999Z,5.30
2018-02-21T01:17:34.413Z,5.30
2018-02-21T01:18:36.925Z,5.30
2018-02-21T01:19:38.315Z,5.30
2018-02-21T01:20:39.988Z,5.30
2018-02-21T01:21:41.393Z,5.30
2018-02-21T01:22:42.780Z,5.30
2018-02-21T01:24:48.027Z,5.30
2018-02-21T01:25:51.035Z,5.30
2018-02-21T01:26:55.352Z,6.10
2018-02-21T01:27:57.130Z,5.30
2018-02-21T01:28:59.011Z,5.30
2018-02-21T01:30:01.183Z,5.30
2018-02-21T01:31:02.887Z,5.30
2018-02-21T01:32:04.302Z,5.30
2018-02-21T01:33:05.703Z,5.30
2018-02-21T01:34:07.854Z,5.30
2018-02-21T01:35:09.269Z,5.30
2018-02-21T01:36:10.675Z,5.30
2018-02-21T01:37:12.816Z,5.30
2018-02-21T01:38:15.213Z,5.30
2018-02-21T01:39:17.272Z,5.30
2018-02-21T01:40:20.363Z,5.30
2018-02-21T01:41:25.023Z,5.30
2018-02-21T01:42:27.766Z,5.30
2018-02-21T01:43:29.649Z,5.30
2018-02-21T01:44:31.067Z,5.30
2018-02-21T01:45:32.465Z,5.30
2018-02-21T01:46:34.619Z,5.30
2018-02-21T01:47:36.039Z,5.30
2018-02-21T01:48:37.432Z,5.30
2018-02-21T01:49:39.584Z,5.30
2018-02-21T01:50:54.083Z,5.30
2018-02-21T01:51:56.317Z,5.30
2018-02-21T01:54:01.799Z,5.30
2018-02-21T01:55:03.219Z,5.30
2018-02-21T01:56:06.114Z,5.30
2018-02-21T01:57:07.552Z,5.30
2018-02-21T01:58:08.955Z,5.30
2018-02-21T01:59:10.353Z,5.30
2018-02-21T02:00:11.747Z,5.30
2018-02-21T02:01:13.191Z,5.30
2018-02-21T02:02:15.341Z,5.40
2018-02-21T02:04:07.397Z,5.40
2018-02-21T02:05:08.811Z,5.40
2018-02-21T02:06:10.963Z,5.30
2018-02-21T02:07:13.118Z,5.40
2018-02-21T02:08:15.607Z,5.30
2018-02-21T02:09:39.262Z,5.30
2018-02-21T02:10:41.413Z,5.30
2018-02-21T02:11:42.829Z,5.30
2018-02-21T02:12:45.590Z,5.30
2018-02-21T02:13:47.642Z,5.20
2018-02-21T02:14:49.039Z,5.20
2018-02-21T02:15:53.092Z,5.20
2018-02-21T02:16:56.230Z,5.20
2018-02-21T02:17:58.203Z,5.20
2018-02-21T02:19:00.198Z,5.20
2018-02-21T02:20:02.464Z,5.10
2018-02-21T02:21:04.639Z,5.10
2018-02-21T02:23:39.274Z,5.10
2018-02-21T02:24:41.685Z,5.00
2018-02-21T02:25:44.337Z,5.00
2018-02-21T02:27:49.126Z,5.00
2018-02-21T02:28:54.152Z,5.00
2018-02-21T02:29:56.985Z,5.00
2018-02-21T02:30:58.990Z,5.00
2018-02-21T02:32:00.435Z,5.00
2018-02-21T02:33:01.847Z,5.00
2018-02-21T02:34:04.360Z,5.00
2018-02-21T02:35:06.057Z,5.00
2018-02-21T02:36:07.424Z,5.00
2018-02-21T02:37:09.560Z,5.10
2018-02-21T02:38:29.727Z,5.10
2018-02-21T02:39:49.715Z,5.10
2018-02-21T02:40:53.566Z,5.10
2018-02-21T02:41:56.635Z,5.10
2018-02-21T02:44:01.574Z,5.10
2018-02-21T02:45:02.979Z,5.10
2018-02-21T02:46:04.675Z,5.10
2018-02-21T02:47:07.216Z,5.10
2018-02-21T02:48:08.615Z,5.10
2018-02-21T02:49:10.008Z,5.20
2018-02-21T02:50:11.410Z,5.10
2018-02-21T02:51:14.037Z,5.20
2018-02-21T02:52:16.300Z,5.20
2018-02-21T02:53:17.948Z,5.20
2018-02-21T02:54:23.443Z,5.20
2018-02-21T02:55:26.186Z,5.20
2018-02-21T02:56:28.134Z,5.20
2018-02-21T02:57:29.860Z,5.20
2018-02-21T02:58:31.257Z,5.20
2018-02-21T02:59:32.645Z,5.20
2018-02-21T03:00:34.048Z,5.20
2018-02-21T03:01:35.747Z,5.20
2018-02-21T03:02:37.128Z,5.20
2018-02-21T03:03:39.260Z,5.20
2018-02-21T03:04:40.660Z,5.20
2018-02-21T03:06:46.119Z,5.20
2018-02-21T03:07:47.823Z,5.20
2018-02-21T03:08:49.217Z,5.20
2018-02-21T03:09:53.287Z,5.20
2018-02-21T03:10:55.439Z,5.20
2018-02-21T03:11:57.274Z,5.20
2018-02-21T03:12:58.985Z,5.20
2018-02-21T03:14:00.394Z,5.20
2018-02-21T03:15:03.315Z,5.20
2018-02-21T03:16:04.759Z,5.20
2018-02-21T03:17:07.909Z,5.20
2018-02-21T03:18:09.291Z,5.20
2018-02-21T03:19:10.673Z,5.20
2018-02-21T03:20:12.093Z,5.20
2018-02-21T03:21:13.519Z,5.20
2018-02-21T03:22:15.735Z,5.20
2018-02-21T03:23:17.216Z,5.20
2018-02-21T03:24:18.635Z,5.20
2018-02-21T03:26:25.847Z,5.20
2018-02-21T03:27:28.150Z,5.20
2018-02-21T03:28:29.581Z,5.20
2018-02-21T03:29:30.999Z,5.20
2018-02-21T03:30:33.152Z,5.20
2018-02-21T03:31:34.601Z,5.20
2018-02-21T03:32:36.032Z,5.20
2018-02-21T03:33:37.434Z,5.20
2018-02-21T03:34:39.586Z,5.20
2018-02-21T03:35:40.974Z,5.20
2018-02-21T03:36:42.365Z,5.20
2018-02-21T03:37:43.916Z,5.20
2018-02-21T03:38:46.221Z,5.20
2018-02-21T03:39:47.956Z,5.20
2018-02-21T03:40:49.361Z,5.20
2018-02-21T03:41:53.222Z,5.20
2018-02-21T03:42:56.159Z,5.20
2018-02-21T03:43:58.307Z,5.20
2018-02-21T03:45:00.036Z,5.20
2018-02-21T03:46:01.439Z,5.20
2018-02-21T03:47:02.869Z,5.30
2018-02-21T03:49:07.741Z,5.30
2018-02-21T03:50:09.160Z,5.30
2018-02-21T03:51:10.567Z,5.20
2018-02-21T03:52:11.961Z,5.30
2018-02-21T03:53:13.762Z,5.30
2018-02-21T03:54:16.751Z,5.30
2018-02-21T03:55:18.198Z,5.30
2018-02-21T03:56:24.420Z,5.30
2018-02-21T03:57:26.705Z,5.30
2018-02-21T03:58:29.713Z,5.30
2018-02-21T03:59:31.147Z,5.30
2018-02-21T04:00:32.535Z,5.30
2018-02-21T04:01:33.926Z,5.30
2018-02-21T04:02:35.327Z,5.30
2018-02-21T04:03:36.747Z,5.30
2018-02-21T04:04:38.152Z,5.30
2018-02-21T04:05:39.547Z,5.30
2018-02-21T04:06:40.949Z,5.30
2018-02-21T04:08:09.145Z,5.30
2018-02-21T04:09:10.544Z,5.30
2018-02-21T04:10:12.742Z,5.30
2018-02-21T04:11:14.607Z,5.30
2018-02-21T04:12:16.579Z,5.30
2018-02-21T04:13:17.993Z,5.30
2018-02-21T04:14:19.671Z,5.30
2018-02-21T04:15:23.498Z,5.30
2018-02-21T04:16:26.775Z,5.30
2018-02-21T04:17:28.617Z,5.30
2018-02-21T04:18:30.807Z,5.30
2018-02-21T04:19:32.955Z,5.30
2018-02-21T04:20:34.351Z,5.30
2018-02-21T04:21:35.743Z,5.30
2018-02-21T04:22:37.121Z,5.30
2018-02-21T04:23:39.276Z,5.30
2018-02-21T04:24:40.824Z,5.30
2018-02-21T04:25:42.517Z,5.20
2018-02-21T04:26:44.331Z,5.30
2018-02-21T04:27:45.981Z,5.30
2018-02-21T04:28:47.375Z,5.30
2018-02-21T04:29:48.788Z,5.30
2018-02-21T04:30:50.863Z,5.20
2018-02-21T04:31:53.073Z,5.20
2018-02-21T04:32:54.975Z,5.30
2018-02-21T04:33:56.667Z,5.30
2018-02-21T04:34:58.507Z,5.30
2018-02-21T04:36:00.641Z,5.30
2018-02-21T04:37:02.040Z,5.30
2018-02-21T04:38:04.186Z,5.20
2018-02-21T04:39:05.576Z,5.30
2018-02-21T04:40:07.295Z,5.20
2018-02-21T04:41:08.709Z,5.20
2018-02-21T04:42:10.944Z,5.20
2018-02-21T04:43:13.397Z,5.20
2018-02-21T04:44:15.916Z,5.20
2018-02-21T04:45:18.072Z,5.20
2018-02-21T04:46:22.524Z,5.20
2018-02-21T04:47:24.843Z,5.20
2018-02-21T04:48:26.539Z,5.20
2018-02-21T04:49:28.039Z,5.20
2018-02-21T04:50:29.861Z,5.20
2018-02-21T04:51:31.998Z,5.20
2018-02-21T04:52:33.435Z,5.20
2018-02-21T04:53:34.857Z,2.20
2018-02-21T04:56:32.953Z,5.20
2018-02-21T04:58:55.744Z,5.20
2018-02-21T04:59:57.559Z,5.20
2018-02-21T05:00:59.027Z,5.20
2018-02-21T05:02:00.739Z,5.10
2018-02-21T05:03:02.134Z,5.10
2018-02-21T05:04:03.543Z,5.10
2018-02-21T05:05:39.801Z,5.20
2018-02-21T05:06:41.960Z,5.10
2018-02-21T05:07:43.687Z,5.10
2018-02-21T05:08:45.966Z,5.10
2018-02-21T05:09:47.364Z,5.10
2018-02-21T05:10:48.757Z,5.10
2018-02-21T05:11:51.924Z,5.10
2018-02-21T05:12:54.601Z,5.10
2018-02-21T05:13:56.939Z,5.10
2018-02-21T05:14:58.358Z,5.10
2018-02-21T05:16:00.858Z,5.10
2018-02-21T05:17:02.254Z,5.10
2018-02-21T05:18:03.662Z,5.10
2018-02-21T05:19:05.785Z,5.10
2018-02-21T05:20:07.206Z,5.10
2018-02-21T05:21:08.605Z,5.10
2018-02-21T05:22:10.739Z,5.10
2018-02-21T05:23:12.429Z,5.10
2018-02-21T05:24:15.079Z,5.10
2018-02-21T05:25:17.254Z,5.10
2018-02-21T05:26:18.669Z,5.10
2018-02-21T05:27:22.033Z,5.10
2018-02-21T05:28:25.057Z,5.10
2018-02-21T05:29:26.693Z,5.10
2018-02-21T05:30:28.128Z,5.10
2018-02-21T05:31:29.545Z,5.10
2018-02-21T05:32:31.018Z,5.10
2018-02-21T05:33:32.422Z,5.10
2018-02-21T05:34:33.819Z,5.10
2018-02-21T05:35:35.267Z,5.10
2018-02-21T05:36:36.673Z,5.10
2018-02-21T05:37:38.069Z,5.10
2018-02-21T05:38:39.505Z,5.10
2018-02-21T05:39:40.892Z,5.10
2018-02-21T05:40:42.290Z,5.10
2018-02-21T05:41:44.143Z,5.10
2018-02-21T05:42:45.926Z,5.10
2018-02-21T05:44:50.885Z,5.20
2018-02-21T05:45:53.628Z,5.20
2018-02-21T05:46:55.510Z,5.10
2018-02-21T05:47:57.942Z,5.10
2018-02-21T05:48:59.363Z,5.10
2018-02-21T05:50:01.139Z,5.10
2018-02-21T05:51:02.533Z,5.10
2018-02-21T05:52:29.725Z,5.10
2018-02-21T05:53:31.144Z,5.20
2018-02-21T05:54:32.538Z,5.10
2018-02-21T05:55:33.957Z,5.20
2018-02-21T05:56:35.414Z,5.10
2018-02-21T05:57:36.807Z,5.10
2018-02-21T05:58:38.959Z,5.20
2018-02-21T05:59:40.340Z,5.20
2018-02-21T06:00:41.751Z,5.20
2018-02-21T06:01:43.433Z,5.20
2018-02-21T06:02:45.300Z,5.20
2018-02-21T06:03:47.237Z,5.20
2018-02-21T06:04:48.637Z,5.20
2018-02-21T06:05:52.503Z,5.20
2018-02-21T06:06:55.552Z,5.20
2018-02-21T06:07:57.291Z,5.20
2018-02-21T06:08:58.723Z,5.20
2018-02-21T06:10:00.105Z,5.20
2018-02-21T06:11:01.511Z,5.20
2018-02-21T06:12:02.915Z,5.20
2018-02-21T06:13:04.310Z,5.20
2018-02-21T06:14:05.694Z,5.10
2018-02-21T06:15:07.090Z,5.10
2018-02-21T06:16:08.623Z,5.10
2018-02-21T06:17:10.777Z,5.10
2018-02-21T06:18:12.171Z,5.10
2018-02-21T06:19:13.902Z,5.10
2018-02-21T06:21:19.021Z,5.10
2018-02-21T06:23:25.979Z,5.10
2018-02-21T06:25:31.311Z,5.10
2018-02-21T06:26:34.477Z,5.10
2018-02-21T06:27:35.888Z,5.10
2018-02-21T06:28:37.274Z,5.10
2018-02-21T06:29:38.669Z,5.10
2018-02-21T06:32:36.173Z,5.10
2018-02-21T06:33:39.205Z,5.10
2018-02-21T06:34:40.827Z,5.10
2018-02-21T06:35:42.417Z,5.10
2018-02-21T06:36:44.183Z,5.10
2018-02-21T06:37:46.907Z,5.10
2018-02-21T06:38:48.463Z,5.10
2018-02-21T06:39:50.698Z,5.10
2018-02-21T06:40:55.537Z,5.10
2018-02-21T06:41:58.354Z,5.10
2018-02-21T06:43:01.146Z,5.10
2018-02-21T06:44:02.614Z,5.10
2018-02-21T06:45:04.328Z,5.10
2018-02-21T06:46:06.755Z,5.10
2018-02-21T06:47:08.271Z,5.10
2018-02-21T06:48:09.914Z,5.10
2018-02-21T06:49:11.434Z,5.10
2018-02-21T06:50:12.987Z,5.10
2018-02-21T06:51:15.026Z,5.10
2018-02-21T06:52:18.009Z,5.10
2018-02-21T06:53:19.873Z,5.10
2018-02-21T06:54:24.341Z,5.10
2018-02-21T06:55:26.279Z,5.10
2018-02-21T06:56:28.172Z,5.10
2018-02-21T06:57:29.693Z,5.10
2018-02-21T06:58:31.249Z,5.10
2018-02-21T06:59:32.830Z,5.10
2018-02-21T07:00:34.356Z,5.10
2018-02-21T07:01:35.938Z,5.10
2018-02-21T07:02:37.340Z,5.10
2018-02-21T07:03:39.489Z,5.10
2018-02-21T07:04:40.882Z,5.10
2018-02-21T07:05:42.257Z,5.10
2018-02-21T07:06:44.034Z,5.10
2018-02-21T07:07:45.719Z,5.10
2018-02-21T07:08:48.617Z,5.10
2018-02-21T07:09:51.951Z,5.10
2018-02-21T07:10:54.475Z,5.10
2018-02-21T07:11:56.580Z,5.10
2018-02-21T07:12:58.487Z,5.10
2018-02-21T07:15:03.085Z,5.10
2018-02-21T07:17:07.609Z,5.10
2018-02-21T07:18:08.997Z,5.10
2018-02-21T07:19:11.535Z,5.10
2018-02-21T07:20:12.917Z,5.20
2018-02-21T07:22:17.797Z,5.20
2018-02-21T07:23:19.188Z,5.10
2018-02-21T07:24:23.305Z,5.10
2018-02-21T07:25:26.119Z,5.10
2018-02-21T07:27:30.986Z,5.20
2018-02-21T07:29:36.857Z,5.20
2018-02-21T07:31:41.577Z,5.20
2018-02-21T07:32:43.383Z,5.20
2018-02-21T07:34:51.050Z,5.20
2018-02-21T07:35:54.217Z,5.30
2018-02-21T07:36:56.644Z,5.00
2018-02-21T07:37:58.642Z,5.20
2018-02-21T07:40:04.117Z,5.30
2018-02-21T07:41:05.611Z,5.30
2018-02-21T07:42:07.010Z,5.30
2018-02-21T07:43:08.413Z,5.30
2018-02-21T07:44:10.962Z,5.30
2018-02-21T07:45:12.397Z,5.20
2018-02-21T07:46:14.128Z,5.30
2018-02-21T07:47:16.185Z,5.30
2018-02-21T07:49:22.956Z,5.30
2018-02-21T07:50:25.096Z,5.30
2018-02-21T07:51:26.759Z,5.40
2018-02-21T07:52:28.213Z,5.40
2018-02-21T07:53:29.637Z,5.40
2018-02-21T07:54:31.026Z,5.40
2018-02-21T07:55:32.421Z,5.40
2018-02-21T07:56:34.545Z,5.40
2018-02-21T07:57:35.942Z,5.40
2018-02-21T07:58:37.330Z,5.40
2018-02-21T08:00:41.868Z,5.40
2018-02-21T08:01:43.517Z,5.40
2018-02-21T08:02:46.438Z,5.40
2018-02-21T08:03:48.581Z,5.40
2018-02-21T08:04:50.275Z,5.40
2018-02-21T08:05:53.281Z,5.40
2018-02-21T08:07:58.641Z,5.40
2018-02-21T08:09:00.038Z,5.40
2018-02-21T08:10:01.452Z,5.40
2018-02-21T08:11:02.877Z,5.40
2018-02-21T08:12:04.282Z,5.40
2018-02-21T08:13:05.678Z,5.40
2018-02-21T08:14:07.061Z,5.40
2018-02-21T08:15:08.479Z,5.40
2018-02-21T08:16:10.887Z,5.40
2018-02-21T08:17:12.490Z,5.40
2018-02-21T08:19:18.500Z,5.40
2018-02-21T08:21:26.357Z,5.40
2018-02-21T08:22:28.173Z,5.40
2018-02-21T08:25:35.805Z,5.40
2018-02-21T08:26:37.241Z,5.40
2018-02-21T08:27:38.636Z,5.40
2018-02-21T08:28:40.754Z,5.40
2018-02-21T08:29:42.137Z,5.40
2018-02-21T08:30:44.455Z,5.40
2018-02-21T08:31:46.078Z,5.40
2018-02-21T08:32:48.649Z,5.40
2018-02-21T08:33:50.476Z,5.40
2018-02-21T08:34:53.841Z,5.40
2018-02-21T08:35:56.095Z,5.40
2018-02-21T08:38:00.982Z,5.40
2018-02-21T08:39:02.438Z,5.40
2018-02-21T08:40:03.829Z,5.40
2018-02-21T08:42:09.449Z,5.30
2018-02-21T08:43:10.835Z,5.40
2018-02-21T08:44:12.979Z,5.30
2018-02-21T08:45:14.896Z,5.30
2018-02-21T08:46:16.663Z,5.30
2018-02-21T08:47:18.112Z,5.30
2018-02-21T08:48:19.534Z,5.30
2018-02-21T08:49:24.150Z,5.30
2018-02-21T08:50:27.062Z,5.30
2018-02-21T08:51:29.864Z,5.30
2018-02-21T08:52:31.551Z,5.30
2018-02-21T08:54:37.533Z,5.30
2018-02-21T08:56:43.505Z,5.30
2018-02-21T08:57:46.931Z,5.30
2018-02-21T08:58:48.397Z,5.30
2018-02-21T09:03:01.433Z,5.30
2018-02-21T09:04:02.839Z,5.30
2018-02-21T09:05:04.249Z,5.30
2018-02-21T09:06:06.381Z,5.30
2018-02-21T09:07:08.502Z,5.30
2018-02-21T09:08:10.198Z,5.30
2018-02-21T09:09:11.614Z,5.30
2018-02-21T09:10:13.001Z,5.30
2018-02-21T09:11:59.502Z,5.30
2018-02-21T09:14:04.026Z,5.40
2018-02-21T09:15:06.165Z,5.30
2018-02-21T09:17:11.684Z,5.40
2018-02-21T09:19:00.882Z,5.40
2018-02-21T09:22:56.220Z,5.30
2018-02-21T09:23:58.063Z,5.40
2018-02-21T09:26:02.597Z,5.30
2018-02-21T09:27:04.032Z,5.30
2018-02-21T09:28:05.428Z,5.30
2018-02-21T09:29:07.569Z,5.30
2018-02-21T09:31:12.102Z,5.30
2018-02-21T09:32:14.042Z,5.30
2018-02-21T09:33:17.274Z,5.40
2018-02-21T09:34:18.688Z,5.30
2018-02-21T09:35:22.741Z,5.40
2018-02-21T09:36:26.494Z,5.30
2018-02-21T09:37:28.778Z,5.30
2018-02-21T09:38:30.274Z,5.30
2018-02-21T09:39:31.676Z,5.30
2018-02-21T09:40:33.061Z,5.30
2018-02-21T09:41:35.580Z,5.30
2018-02-21T09:43:40.153Z,5.30
2018-02-21T09:44:41.573Z,5.30
2018-02-21T09:46:46.897Z,5.20
2018-02-21T09:47:48.621Z,5.30
2018-02-21T09:48:52.181Z,5.30
2018-02-21T09:49:56.229Z,5.30
2018-02-21T09:52:18.574Z,5.30
2018-02-21T09:53:21.295Z,5.30
2018-02-21T09:57:34.557Z,5.20
2018-02-21T09:58:35.973Z,5.20
2018-02-21T09:59:37.354Z,5.20
2018-02-21T10:00:38.750Z,5.20
2018-02-21T10:01:41.634Z,5.10
2018-02-21T10:02:44.897Z,5.10
2018-02-21T10:03:46.826Z,5.10
2018-02-21T10:04:48.301Z,5.10
2018-02-21T10:06:56.461Z,5.10
2018-02-21T10:07:58.920Z,5.10
2018-02-21T10:09:00.369Z,5.10
2018-02-21T10:12:08.699Z,5.10
2018-02-21T10:13:10.834Z,5.10
2018-02-21T10:14:57.956Z,5.10
2018-02-21T10:15:59.658Z,5.10
2018-02-21T10:17:01.058Z,5.10
2018-02-21T10:18:03.574Z,5.10
2018-02-21T10:19:04.976Z,5.10
2018-02-21T10:20:06.658Z,5.10
2018-02-21T10:21:09.552Z,5.10
2018-02-21T10:22:10.940Z,5.10
2018-02-21T10:23:12.354Z,5.10
2018-02-21T10:25:19.238Z,5.10
2018-02-21T10:26:23.357Z,5.20
2018-02-21T10:27:26.922Z,5.20
2018-02-21T10:29:31.562Z,5.20
2018-02-21T10:30:33.214Z,5.20
2018-02-21T10:31:34.606Z,5.20
2018-02-21T10:32:36.750Z,5.20
2018-02-21T10:33:38.206Z,5.10
2018-02-21T10:34:39.602Z,5.20
2018-02-21T10:35:41.780Z,5.10
2018-02-21T10:37:04.533Z,5.20
2018-02-21T10:38:05.944Z,5.20
2018-02-21T10:39:07.329Z,5.20
2018-02-21T10:40:08.980Z,5.20
2018-02-21T10:42:16.444Z,5.20
2018-02-21T10:43:18.732Z,5.20
2018-02-21T10:45:51.878Z,5.20
2018-02-21T10:46:54.948Z,5.20
2018-02-21T10:47:58.499Z,5.20
2018-02-21T10:49:00.976Z,5.20
2018-02-21T10:50:02.554Z,5.20
2018-02-21T10:52:07.101Z,5.20
2018-02-21T10:53:08.515Z,5.20
2018-02-21T10:54:10.654Z,5.20
2018-02-21T10:55:12.786Z,5.20
2018-02-21T10:56:14.887Z,5.20
2018-02-21T10:57:17.540Z,5.20
2018-02-21T10:58:20.838Z,5.10
2018-02-21T10:59:27.540Z,5.20
2018-02-21T11:02:41.602Z,5.10
2018-02-21T11:03:44.029Z,5.10
2018-02-21T11:04:47.380Z,5.10
2018-02-21T11:06:56.847Z,5.10
2018-02-21T11:07:59.006Z,5.10
2018-02-21T11:09:00.454Z,5.10
2018-02-21T11:12:08.814Z,5.10
2018-02-21T11:13:11.294Z,5.10
2018-02-21T11:14:13.966Z,5.10
2018-02-21T11:16:18.927Z,5.10
2018-02-21T11:18:45.902Z,5.10
2018-02-21T11:19:47.974Z,5.10
2018-02-21T11:20:49.366Z,5.10
2018-02-21T11:21:55.281Z,5.10
2018-02-21T11:24:25.932Z,5.20
2018-02-21T11:25:27.954Z,5.20
2018-02-21T11:28:35.643Z,5.20
2018-02-21T11:29:37.301Z,5.20
2018-02-21T11:30:38.716Z,5.20
2018-02-21T11:31:40.125Z,5.10
2018-02-21T11:32:41.522Z,5.10
2018-02-21T11:33:42.942Z,5.10
2018-02-21T11:34:46.948Z,5.10
2018-02-21T11:35:48.457Z,5.20
2018-02-21T11:36:56.446Z,5.20
2018-02-21T11:37:58.717Z,5.20
2018-02-21T11:39:00.394Z,5.20
2018-02-21T11:40:01.834Z,5.20
2018-02-21T11:41:03.275Z,5.20
2018-02-21T11:42:05.414Z,5.20
2018-02-21T11:43:07.545Z,5.20
2018-02-21T11:45:12.124Z,5.20
2018-02-21T11:47:01.262Z,5.30
2018-02-21T11:48:02.670Z,5.30
2018-02-21T11:50:07.140Z,5.30
2018-02-21T11:51:08.915Z,5.30
2018-02-21T11:52:10.306Z,5.40
2018-02-21T11:53:11.708Z,5.30
2018-02-21T11:54:14.136Z,5.40
2018-02-21T11:55:16.601Z,5.40
2018-02-21T11:57:25.806Z,5.40
2018-02-21T11:58:28.194Z,5.40
2018-02-21T11:59:30.206Z,5.50
2018-02-21T12:00:31.606Z,5.50
2018-02-21T12:02:36.118Z,5.50
2018-02-21T12:03:38.621Z,5.50
2018-02-21T12:04:40.817Z,5.50
2018-02-21T12:06:47.845Z,5.50
2018-02-21T12:08:36.814Z,5.60
2018-02-21T12:09:38.202Z,5.60
2018-02-21T12:10:40.342Z,5.60
2018-02-21T12:11:41.738Z,5.60
2018-02-21T12:12:43.696Z,5.60
2018-02-21T12:13:46.817Z,5.60
2018-02-21T12:14:48.462Z,5.60
2018-02-21T12:15:51.640Z,5.60
2018-02-21T12:17:58.769Z,5.60
2018-02-21T12:19:00.437Z,5.60
2018-02-21T12:20:02.981Z,5.60
2018-02-21T12:21:04.381Z,5.60
2018-02-21T12:23:08.910Z,5.60
2018-02-21T12:24:11.418Z,5.60
2018-02-21T12:25:12.857Z,5.60
2018-02-21T12:27:18.778Z,5.60
2018-02-21T12:28:21.954Z,5.60
2018-02-21T12:29:25.966Z,5.50
2018-02-21T12:30:28.160Z,5.50
2018-02-21T12:31:30.729Z,5.50
2018-02-21T12:32:32.894Z,5.50
2018-02-21T12:33:34.317Z,5.50
2018-02-21T12:34:36.870Z,5.50
2018-02-21T12:35:38.252Z,5.50
2018-02-21T12:37:07.637Z,5.50
2018-02-21T12:39:05.018Z,5.50
2018-02-21T12:40:06.430Z,5.50
2018-02-21T12:42:48.842Z,5.50
2018-02-21T12:43:53.282Z,5.40
2018-02-21T12:45:59.854Z,5.40
2018-02-21T12:48:05.484Z,5.40
2018-02-21T12:49:06.877Z,5.40
2018-02-21T12:50:08.354Z,5.40
2018-02-21T12:51:10.469Z,5.40
2018-02-21T12:52:11.858Z,5.40
2018-02-21T12:53:13.267Z,5.40
2018-02-21T12:55:21.824Z,5.40
2018-02-21T12:56:25.162Z,5.40
2018-02-21T12:57:28.414Z,5.40
2018-02-21T12:59:34.090Z,5.50
2018-02-21T13:00:35.517Z,5.50
2018-02-21T13:02:40.010Z,5.50
2018-02-21T13:03:41.410Z,5.50
2018-02-21T13:04:44.076Z,5.50
2018-02-21T13:05:46.324Z,5.50
2018-02-21T13:06:48.170Z,5.50
2018-02-21T13:07:53.215Z,5.50
2018-02-21T13:09:59.134Z,5.50
2018-02-21T13:11:00.890Z,5.60
2018-02-21T13:12:02.286Z,5.60
2018-02-21T13:13:04.406Z,5.60
2018-02-21T13:14:05.811Z,5.60
2018-02-21T13:15:07.218Z,5.60
2018-02-21T13:16:08.986Z,5.60
2018-02-21T13:17:10.374Z,5.60
2018-02-21T13:18:14.880Z,5.60
2018-02-21T13:19:16.794Z,5.60
2018-02-21T13:20:18.422Z,5.70
2018-02-21T13:21:21.291Z,5.70
2018-02-21T13:23:28.115Z,5.70
2018-02-21T13:24:31.055Z,5.70
2018-02-21T13:25:32.448Z,5.70
2018-02-21T13:26:34.118Z,5.70
2018-02-21T13:27:35.506Z,5.60
2018-02-21T13:29:40.019Z,5.70
2018-02-21T13:30:42.150Z,5.60
2018-02-21T13:31:43.912Z,5.70
2018-02-21T13:32:46.116Z,5.70
2018-02-21T13:34:54.878Z,5.70
2018-02-21T13:37:01.384Z,5.70
2018-02-21T13:38:02.828Z,5.70
2018-02-21T13:39:05.338Z,5.70
2018-02-21T13:40:07.842Z,5.70
2018-02-21T13:41:09.253Z,5.70
2018-02-21T13:42:11.398Z,5.70
2018-02-21T13:43:12.818Z,5.70
2018-02-21T13:44:14.674Z,5.70
2018-02-21T13:47:26.524Z,5.80
2018-02-21T13:49:32.599Z,5.80
2018-02-21T13:51:37.127Z,5.70
2018-02-21T13:53:41.631Z,5.80
2018-02-21T13:54:43.845Z,5.80
2018-02-21T13:55:46.197Z,5.80
2018-02-21T13:56:48.037Z,5.80
2018-02-21T13:57:51.328Z,5.80
2018-02-21T13:59:58.294Z,5.80
2018-02-21T14:01:00.070Z,5.80
2018-02-21T14:02:01.469Z,5.80
2018-02-21T14:03:02.893Z,5.80
2018-02-21T14:04:04.287Z,5.80
2018-02-21T14:05:05.698Z,5.80
2018-02-21T14:06:07.878Z,5.80
2018-02-21T14:07:09.277Z,5.80
2018-02-21T14:08:10.695Z,5.80
2018-02-21T14:10:16.162Z,5.80
2018-02-21T14:12:24.794Z,5.80
2018-02-21T14:13:27.000Z,5.80
2018-02-21T14:14:28.876Z,5.80
2018-02-21T14:16:33.455Z,5.80
2018-02-21T14:17:34.871Z,5.80
2018-02-21T14:18:36.274Z,5.80
2018-02-21T14:19:37.677Z,5.70
2018-02-21T14:22:46.774Z,5.70
2018-02-21T14:23:48.470Z,5.70
2018-02-21T14:24:51.943Z,5.70
2018-02-21T14:25:56.866Z,5.70
2018-02-21T14:28:56.871Z,5.70
2018-02-21T14:29:59.135Z,5.70
2018-02-21T14:31:00.697Z,5.70
2018-02-21T14:32:02.083Z,5.60
2018-02-21T14:33:03.506Z,5.60
2018-02-21T14:35:09.157Z,5.60
2018-02-21T14:36:11.301Z,5.60
2018-02-21T14:37:14.503Z,5.60
2018-02-21T14:39:25.600Z,5.60
2018-02-21T14:40:28.808Z,5.60
2018-02-21T14:41:30.446Z,5.50
2018-02-21T14:42:32.965Z,5.50
2018-02-21T14:43:34.355Z,5.60
2018-02-21T14:44:35.763Z,5.50
2018-02-21T14:45:37.911Z,5.50
2018-02-21T14:47:44.090Z,5.50
2018-02-21T14:48:46.276Z,5.50
2018-02-21T14:49:48.474Z,5.50
2018-02-21T14:50:50.334Z,5.50
2018-02-21T14:54:01.357Z,5.50
2018-02-21T14:55:02.810Z,5.50
2018-02-21T14:57:07.322Z,5.50
2018-02-21T14:58:08.724Z,5.40
2018-02-21T15:00:13.239Z,5.40
2018-02-21T15:01:15.502Z,5.40
2018-02-21T15:02:17.945Z,5.40
2018-02-21T15:03:19.355Z,5.40
2018-02-21T15:04:24.667Z,6.70
2018-02-21T15:05:27.305Z,5.40
2018-02-21T15:06:29.359Z,5.40
2018-02-21T15:07:30.820Z,5.40
2018-02-21T15:08:32.963Z,5.40
2018-02-21T15:09:34.374Z,7.50
2018-02-21T15:10:35.795Z,5.40
2018-02-21T15:11:37.211Z,5.40
2018-02-21T15:12:38.599Z,5.40
2018-02-21T15:13:39.994Z,5.30
2018-02-21T15:14:41.401Z,5.40
2018-02-21T15:15:42.814Z,5.40
2018-02-21T15:17:48.342Z,5.40
2018-02-21T15:18:55.645Z,5.40
2018-02-21T15:21:00.763Z,5.50
2018-02-21T15:22:02.901Z,5.40
2018-02-21T15:23:04.329Z,5.50
2018-02-21T15:24:05.741Z,5.50
2018-02-21T15:26:10.257Z,5.40
2018-02-21T15:27:11.651Z,5.50
2018-02-21T15:29:17.359Z,5.50
2018-02-21T15:30:18.862Z,5.40
2018-02-21T15:34:33.259Z,5.40
2018-02-21T15:35:34.691Z,5.40
2018-02-21T15:38:42.320Z,5.40
2018-02-21T15:39:43.749Z,5.40
2018-02-21T15:41:49.004Z,5.40
2018-02-21T15:42:54.814Z,5.40
2018-02-21T15:43:57.047Z,5.40
2018-02-21T15:44:59.282Z,5.40
2018-02-21T15:48:07.139Z,5.40
2018-02-21T15:49:08.519Z,5.30
2018-02-21T15:50:09.919Z,5.30
2018-02-21T15:53:18.535Z,5.30
2018-02-21T15:55:29.555Z,5.20
2018-02-21T15:58:37.221Z,5.20
2018-02-21T15:59:38.623Z,5.20
2018-02-21T16:02:47.419Z,5.10
2018-02-21T16:03:48.844Z,5.10
2018-02-21T16:05:57.763Z,5.10
2018-02-21T16:08:03.073Z,5.00
2018-02-21T16:09:05.949Z,5.00
2018-02-21T16:10:07.363Z,5.00
2018-02-21T16:11:08.757Z,5.00
2018-02-21T17:53:51.950Z,4.30
2018-02-21T17:54:56.533Z,4.20
2018-02-21T17:57:02.499Z,4.20
2018-02-21T17:58:04.306Z,4.20
2018-02-21T18:00:08.837Z,4.20
2018-02-21T18:01:10.590Z,4.10
2018-02-21T18:02:11.990Z,4.10
2018-02-21T18:03:13.411Z,4.10
2018-02-21T18:04:14.797Z,4.20
2018-02-21T18:07:03.282Z,4.20
2018-02-21T18:13:57.151Z,4.20
2018-02-21T18:17:04.937Z,4.20
2018-02-21T18:20:39.822Z,4.20
2018-02-21T18:22:54.498Z,4.10
2018-02-21T18:29:08.238Z,4.20
2018-02-21T18:30:34.252Z,4.10
2018-02-21T18:31:36.411Z,4.10
2018-02-21T18:32:37.903Z,4.10
2018-02-21T18:34:42.401Z,4.10
2018-02-21T18:35:43.818Z,4.10
2018-02-21T18:36:46.128Z,4.10
2018-02-21T18:38:53.568Z,4.10
2018-02-21T18:39:56.927Z,4.10
2018-02-21T18:42:03.503Z,4.10
2018-02-21T18:43:04.932Z,4.10
2018-02-21T18:44:07.449Z,4.10
2018-02-21T18:45:08.851Z,4.10
2018-02-21T18:46:10.300Z,4.10
2018-02-21T18:49:18.588Z,4.10
2018-02-21T18:51:27.995Z,4.10
2018-02-21T18:53:34.747Z,4.10
2018-02-21T18:54:37.370Z,4.10
2018-02-21T18:55:38.787Z,4.10
2018-02-21T18:56:40.395Z,4.10
2018-02-21T18:57:41.795Z,4.10
2018-02-21T19:02:43.603Z,4.00
2018-02-21T19:09:06.294Z,4.00
2018-02-21T19:10:07.794Z,4.00